sensor_id;sensor_type;location;lat;lon;timestamp;P1;durP1;ratioP1;P2;durP2;ratioP2
3817;SDS011;1924;48.078;11.516;2022-10-22T00:01:25;31.57;;;0.80;;
3817;SDS011;1924;48.078;11.516;2022-10-22T00:03:52;31.30;;;0.80;;
3817;SDS011;1924;48.078;11.516;2022-10-22T00:06:19;31.43;;;0.80;;
3817;SDS011;1924;48.078;11.516;2022-10-22T00:08:46;31.60;;;0.80;;
3817;SDS011;1924;48.078;11.516;2022-10-22T00:11:15;31.30;;;0.80;;
3817;SDS011;1924;48.078;11.516;2022-10-22T00:13:43;31.50;;;0.80;;
3817;SDS011;1924;48.078;11.516;2022-10-22T00:16:11;31.37;;;0.80;;
3817;SDS011;1924;48.078;11.516;2022-10-22T00:18:39;31.50;;;0.80;;
3817;SDS011;1924;48.078;11.516;2022-10-22T00:21:06;31.47;;;0.80;;
3817;SDS011;1924;48.078;11.516;2022-10-22T00:23:33;31.50;;;0.80;;
3817;SDS011;1924;48.078;11.516;2022-10-22T00:26:00;31.57;;;0.80;;
3817;SDS011;1924;48.078;11.516;2022-10-22T00:28:28;31.50;;;0.80;;
3817;SDS011;1924;48.078;11.516;2022-10-22T00:30:55;31.50;;;0.80;;
3817;SDS011;1924;48.078;11.516;2022-10-22T00:33:22;31.43;;;0.80;;
3817;SDS011;1924;48.078;11.516;2022-10-22T00:35:49;31.60;;;0.80;;
3817;SDS011;1924;48.078;11.516;2022-10-22T00:38:15;31.40;;;0.80;;
3817;SDS011;1924;48.078;11.516;2022-10-22T00:40:42;31.57;;;0.80;;
3817;SDS011;1924;48.078;11.516;2022-10-22T00:43:10;31.50;;;0.80;;
3817;SDS011;1924;48.078;11.516;2022-10-22T00:45:39;31.57;;;0.80;;
3817;SDS011;1924;48.078;11.516;2022-10-22T00:48:07;31.57;;;0.80;;
3817;SDS011;1924;48.078;11.516;2022-10-22T00:50:37;31.70;;;0.80;;
3817;SDS011;1924;48.078;11.516;2022-10-22T00:53:05;31.60;;;0.80;;
3817;SDS011;1924;48.078;11.516;2022-10-22T00:55:37;31.57;;;0.80;;
3817;SDS011;1924;48.078;11.516;2022-10-22T00:58:05;31.57;;;0.80;;
3817;SDS011;1924;48.078;11.516;2022-10-22T01:00:32;31.60;;;0.80;;
3817;SDS011;1924;48.078;11.516;2022-10-22T01:03:00;31.70;;;0.80;;
3817;SDS011;1924;48.078;11.516;2022-10-22T01:05:27;31.77;;;0.80;;
3817;SDS011;1924;48.078;11.516;2022-10-22T01:07:55;31.90;;;0.80;;
3817;SDS011;1924;48.078;11.516;2022-10-22T01:10:29;31.90;;;0.80;;
3817;SDS011;1924;48.078;11.516;2022-10-22T01:13:11;31.80;;;0.80;;
3817;SDS011;1924;48.078;11.516;2022-10-22T01:15:47;32.10;;;0.80;;
3817;SDS011;1924;48.078;11.516;2022-10-22T01:18:26;31.90;;;0.80;;
3817;SDS011;1924;48.078;11.516;2022-10-22T01:21:04;32.20;;;0.80;;
3817;SDS011;1924;48.078;11.516;2022-10-22T01:23:54;32.03;;;0.80;;
3817;SDS011;1924;48.078;11.516;2022-10-22T01:26:59;32.30;;;0.80;;
3817;SDS011;1924;48.078;11.516;2022-10-22T01:29:39;32.27;;;0.80;;
3817;SDS011;1924;48.078;11.516;2022-10-22T01:32:09;32.20;;;0.80;;
3817;SDS011;1924;48.078;11.516;2022-10-22T01:34:40;32.40;;;0.80;;
3817;SDS011;1924;48.078;11.516;2022-10-22T01:37:09;32.30;;;0.80;;
3817;SDS011;1924;48.078;11.516;2022-10-22T01:39:39;32.40;;;0.80;;
3817;SDS011;1924;48.078;11.516;2022-10-22T01:42:09;32.30;;;0.80;;
3817;SDS011;1924;48.078;11.516;2022-10-22T01:44:39;32.30;;;0.80;;
3817;SDS011;1924;48.078;11.516;2022-10-22T01:47:13;32.17;;;0.80;;
3817;SDS011;1924;48.078;11.516;2022-10-22T01:49:46;32.27;;;0.80;;
3817;SDS011;1924;48.078;11.516;2022-10-22T01:52:35;32.30;;;0.80;;
3817;SDS011;1924;48.078;11.516;2022-10-22T01:55:14;32.37;;;0.80;;
3817;SDS011;1924;48.078;11.516;2022-10-22T01:57:47;32.37;;;0.80;;
3817;SDS011;1924;48.078;11.516;2022-10-22T02:00:23;32.50;;;0.80;;
3817;SDS011;1924;48.078;11.516;2022-10-22T02:02:53;32.43;;;0.80;;
3817;SDS011;1924;48.078;11.516;2022-10-22T02:05:27;32.50;;;0.80;;
3817;SDS011;1924;48.078;11.516;2022-10-22T02:07:58;32.60;;;0.80;;
3817;SDS011;1924;48.078;11.516;2022-10-22T02:10:28;32.50;;;0.80;;
3817;SDS011;1924;48.078;11.516;2022-10-22T02:12:55;32.50;;;0.80;;
3817;SDS011;1924;48.078;11.516;2022-10-22T02:15:26;32.40;;;0.80;;
3817;SDS011;1924;48.078;11.516;2022-10-22T02:17:56;32.50;;;0.80;;
3817;SDS011;1924;48.078;11.516;2022-10-22T02:20:25;32.50;;;0.80;;
3817;SDS011;1924;48.078;11.516;2022-10-22T02:22:53;32.60;;;0.80;;
3817;SDS011;1924;48.078;11.516;2022-10-22T02:25:21;32.57;;;0.80;;
3817;SDS011;1924;48.078;11.516;2022-10-22T02:27:53;32.37;;;0.80;;
3817;SDS011;1924;48.078;11.516;2022-10-22T04:02:47;32.60;;;0.80;;
3817;SDS011;1924;48.078;11.516;2022-10-22T04:05:14;32.50;;;0.80;;
3817;SDS011;1924;48.078;11.516;2022-10-22T04:07:41;32.50;;;0.80;;
3817;SDS011;1924;48.078;11.516;2022-10-22T04:10:07;32.57;;;0.80;;
3817;SDS011;1924;48.078;11.516;2022-10-22T04:12:34;32.60;;;0.80;;
3817;SDS011;1924;48.078;11.516;2022-10-22T04:15:01;32.50;;;0.80;;
3817;SDS011;1924;48.078;11.516;2022-10-22T04:17:31;32.50;;;0.80;;
3817;SDS011;1924;48.078;11.516;2022-10-22T04:20:00;32.53;;;0.80;;
3817;SDS011;1924;48.078;11.516;2022-10-22T04:22:27;32.50;;;0.80;;
3817;SDS011;1924;48.078;11.516;2022-10-22T04:24:54;32.33;;;0.80;;
3817;SDS011;1924;48.078;11.516;2022-10-22T04:27:21;32.40;;;0.80;;
3817;SDS011;1924;48.078;11.516;2022-10-22T04:29:48;32.50;;;0.80;;
3817;SDS011;1924;48.078;11.516;2022-10-22T04:32:14;32.60;;;0.80;;
3817;SDS011;1924;48.078;11.516;2022-10-22T04:34:41;32.50;;;0.80;;
3817;SDS011;1924;48.078;11.516;2022-10-22T04:37:09;32.50;;;0.80;;
3817;SDS011;1924;48.078;11.516;2022-10-22T04:39:36;32.43;;;0.80;;
3817;SDS011;1924;48.078;11.516;2022-10-22T04:42:03;32.30;;;0.80;;
3817;SDS011;1924;48.078;11.516;2022-10-22T04:44:31;32.40;;;0.80;;
3817;SDS011;1924;48.078;11.516;2022-10-22T04:46:58;32.30;;;0.80;;
3817;SDS011;1924;48.078;11.516;2022-10-22T04:49:24;32.37;;;0.80;;
3817;SDS011;1924;48.078;11.516;2022-10-22T04:51:51;32.30;;;0.80;;
3817;SDS011;1924;48.078;11.516;2022-10-22T04:54:20;32.30;;;0.80;;
3817;SDS011;1924;48.078;11.516;2022-10-22T04:56:47;32.40;;;0.80;;
3817;SDS011;1924;48.078;11.516;2022-10-22T04:59:14;32.47;;;0.80;;
3817;SDS011;1924;48.078;11.516;2022-10-22T05:01:41;32.47;;;0.80;;
3817;SDS011;1924;48.078;11.516;2022-10-22T05:04:10;32.37;;;0.80;;
3817;SDS011;1924;48.078;11.516;2022-10-22T05:06:38;32.30;;;0.80;;
3817;SDS011;1924;48.078;11.516;2022-10-22T05:09:05;32.40;;;0.80;;
3817;SDS011;1924;48.078;11.516;2022-10-22T05:11:35;32.37;;;0.80;;
3817;SDS011;1924;48.078;11.516;2022-10-22T05:14:05;32.27;;;0.80;;
3817;SDS011;1924;48.078;11.516;2022-10-22T05:16:33;32.20;;;0.80;;
3817;SDS011;1924;48.078;11.516;2022-10-22T05:19:02;32.13;;;0.80;;
3817;SDS011;1924;48.078;11.516;2022-10-22T05:21:30;32.20;;;0.80;;
3817;SDS011;1924;48.078;11.516;2022-10-22T05:23:56;32.37;;;0.80;;
3817;SDS011;1924;48.078;11.516;2022-10-22T05:26:24;32.30;;;0.80;;
3817;SDS011;1924;48.078;11.516;2022-10-22T05:28:54;32.37;;;0.80;;
3817;SDS011;1924;48.078;11.516;2022-10-22T05:31:21;32.17;;;0.80;;
3817;SDS011;1924;48.078;11.516;2022-10-22T05:33:48;32.70;;;0.90;;
3817;SDS011;1924;48.078;11.516;2022-10-22T05:36:15;32.10;;;0.80;;
3817;SDS011;1924;48.078;11.516;2022-10-22T05:38:43;32.27;;;0.80;;
3817;SDS011;1924;48.078;11.516;2022-10-22T05:41:11;32.07;;;0.80;;
3817;SDS011;1924;48.078;11.516;2022-10-22T05:43:39;32.20;;;0.80;;
3817;SDS011;1924;48.078;11.516;2022-10-22T05:46:08;32.07;;;0.80;;
3817;SDS011;1924;48.078;11.516;2022-10-22T05:48:36;32.10;;;0.80;;
3817;SDS011;1924;48.078;11.516;2022-10-22T05:51:03;32.00;;;0.80;;
3817;SDS011;1924;48.078;11.516;2022-10-22T05:53:31;32.00;;;0.80;;
3817;SDS011;1924;48.078;11.516;2022-10-22T05:55:59;32.00;;;0.80;;
3817;SDS011;1924;48.078;11.516;2022-10-22T05:58:26;31.90;;;0.80;;
3817;SDS011;1924;48.078;11.516;2022-10-22T06:00:53;31.97;;;0.80;;
3817;SDS011;1924;48.078;11.516;2022-10-22T06:03:21;31.73;;;0.80;;
3817;SDS011;1924;48.078;11.516;2022-10-22T06:05:48;31.90;;;0.80;;
3817;SDS011;1924;48.078;11.516;2022-10-22T06:08:15;31.73;;;0.80;;
3817;SDS011;1924;48.078;11.516;2022-10-22T06:10:42;31.80;;;0.80;;
3817;SDS011;1924;48.078;11.516;2022-10-22T06:13:09;31.87;;;0.80;;
3817;SDS011;1924;48.078;11.516;2022-10-22T06:15:35;32.00;;;0.80;;
3817;SDS011;1924;48.078;11.516;2022-10-22T06:18:02;31.90;;;0.80;;
3817;SDS011;1924;48.078;11.516;2022-10-22T06:20:30;31.90;;;0.80;;
3817;SDS011;1924;48.078;11.516;2022-10-22T06:22:59;32.00;;;0.80;;
3817;SDS011;1924;48.078;11.516;2022-10-22T06:25:26;32.00;;;0.80;;
3817;SDS011;1924;48.078;11.516;2022-10-22T06:27:52;31.90;;;0.80;;
3817;SDS011;1924;48.078;11.516;2022-10-22T06:30:19;31.90;;;0.80;;
3817;SDS011;1924;48.078;11.516;2022-10-22T06:32:46;31.80;;;0.80;;
3817;SDS011;1924;48.078;11.516;2022-10-22T06:35:13;32.00;;;0.80;;
3817;SDS011;1924;48.078;11.516;2022-10-22T06:37:41;31.90;;;0.80;;
3817;SDS011;1924;48.078;11.516;2022-10-22T06:40:08;31.90;;;0.80;;
3817;SDS011;1924;48.078;11.516;2022-10-22T06:42:36;31.80;;;0.80;;
3817;SDS011;1924;48.078;11.516;2022-10-22T06:45:03;31.80;;;0.80;;
3817;SDS011;1924;48.078;11.516;2022-10-22T06:47:30;31.80;;;0.80;;
3817;SDS011;1924;48.078;11.516;2022-10-22T06:49:57;31.80;;;0.80;;
3817;SDS011;1924;48.078;11.516;2022-10-22T06:52:24;31.73;;;0.80;;
3817;SDS011;1924;48.078;11.516;2022-10-22T06:54:52;31.80;;;0.80;;
3817;SDS011;1924;48.078;11.516;2022-10-22T06:57:18;31.80;;;0.80;;
3817;SDS011;1924;48.078;11.516;2022-10-22T06:59:46;31.80;;;0.80;;
3817;SDS011;1924;48.078;11.516;2022-10-22T07:02:13;31.80;;;0.80;;
3817;SDS011;1924;48.078;11.516;2022-10-22T07:04:40;31.80;;;0.80;;
3817;SDS011;1924;48.078;11.516;2022-10-22T07:07:06;32.00;;;0.80;;
3817;SDS011;1924;48.078;11.516;2022-10-22T07:09:33;31.80;;;0.80;;
3817;SDS011;1924;48.078;11.516;2022-10-22T07:12:01;31.93;;;0.80;;
3817;SDS011;1924;48.078;11.516;2022-10-22T07:14:28;31.97;;;0.80;;
3817;SDS011;1924;48.078;11.516;2022-10-22T07:16:55;31.90;;;0.80;;
3817;SDS011;1924;48.078;11.516;2022-10-22T07:19:21;31.80;;;0.80;;
3817;SDS011;1924;48.078;11.516;2022-10-22T07:21:48;31.80;;;0.80;;
3817;SDS011;1924;48.078;11.516;2022-10-22T07:24:15;31.87;;;0.80;;
3817;SDS011;1924;48.078;11.516;2022-10-22T07:26:42;31.90;;;0.80;;
3817;SDS011;1924;48.078;11.516;2022-10-22T07:29:10;31.80;;;0.80;;
3817;SDS011;1924;48.078;11.516;2022-10-22T07:31:36;31.83;;;0.80;;
3817;SDS011;1924;48.078;11.516;2022-10-22T07:34:03;31.90;;;0.80;;
3817;SDS011;1924;48.078;11.516;2022-10-22T07:36:30;31.80;;;0.80;;
3817;SDS011;1924;48.078;11.516;2022-10-22T07:38:58;31.90;;;0.80;;
3817;SDS011;1924;48.078;11.516;2022-10-22T07:41:25;32.00;;;0.80;;
3817;SDS011;1924;48.078;11.516;2022-10-22T07:43:53;31.80;;;0.80;;
3817;SDS011;1924;48.078;11.516;2022-10-22T07:46:21;31.43;;;0.80;;
3817;SDS011;1924;48.078;11.516;2022-10-22T07:48:48;31.67;;;0.80;;
3817;SDS011;1924;48.078;11.516;2022-10-22T07:51:16;31.90;;;0.80;;
3817;SDS011;1924;48.078;11.516;2022-10-22T07:53:43;31.90;;;0.80;;
3817;SDS011;1924;48.078;11.516;2022-10-22T07:56:09;31.80;;;0.80;;
3817;SDS011;1924;48.078;11.516;2022-10-22T07:58:36;31.77;;;0.80;;
3817;SDS011;1924;48.078;11.516;2022-10-22T08:01:03;31.80;;;0.80;;
3817;SDS011;1924;48.078;11.516;2022-10-22T08:03:32;31.87;;;0.80;;
3817;SDS011;1924;48.078;11.516;2022-10-22T08:05:59;31.90;;;0.80;;
3817;SDS011;1924;48.078;11.516;2022-10-22T08:08:26;31.80;;;0.80;;
3817;SDS011;1924;48.078;11.516;2022-10-22T08:10:54;31.90;;;0.80;;
3817;SDS011;1924;48.078;11.516;2022-10-22T08:13:23;31.80;;;0.80;;
3817;SDS011;1924;48.078;11.516;2022-10-22T08:15:51;31.90;;;0.80;;
3817;SDS011;1924;48.078;11.516;2022-10-22T08:18:18;31.37;;;0.80;;
3817;SDS011;1924;48.078;11.516;2022-10-22T08:20:46;31.80;;;0.80;;
3817;SDS011;1924;48.078;11.516;2022-10-22T08:23:12;31.70;;;0.80;;
3817;SDS011;1924;48.078;11.516;2022-10-22T08:25:39;31.73;;;0.80;;
3817;SDS011;1924;48.078;11.516;2022-10-22T08:28:06;31.80;;;0.80;;
3817;SDS011;1924;48.078;11.516;2022-10-22T08:30:33;31.60;;;0.80;;
3817;SDS011;1924;48.078;11.516;2022-10-22T08:33:02;31.90;;;0.80;;
3817;SDS011;1924;48.078;11.516;2022-10-22T08:35:28;31.67;;;0.80;;
3817;SDS011;1924;48.078;11.516;2022-10-22T08:37:57;31.80;;;0.80;;
3817;SDS011;1924;48.078;11.516;2022-10-22T08:40:27;31.90;;;0.80;;
3817;SDS011;1924;48.078;11.516;2022-10-22T08:43:04;31.57;;;0.80;;
3817;SDS011;1924;48.078;11.516;2022-10-22T08:45:56;31.80;;;0.80;;
3817;SDS011;1924;48.078;11.516;2022-10-22T08:48:37;31.80;;;0.80;;
3817;SDS011;1924;48.078;11.516;2022-10-22T08:51:11;31.80;;;0.80;;
3817;SDS011;1924;48.078;11.516;2022-10-22T08:53:44;31.90;;;0.80;;
3817;SDS011;1924;48.078;11.516;2022-10-22T08:56:18;31.70;;;0.80;;
3817;SDS011;1924;48.078;11.516;2022-10-22T08:58:48;31.80;;;0.80;;
3817;SDS011;1924;48.078;11.516;2022-10-22T09:01:21;31.73;;;0.80;;
3817;SDS011;1924;48.078;11.516;2022-10-22T09:03:55;31.63;;;0.80;;
3817;SDS011;1924;48.078;11.516;2022-10-22T09:06:24;31.73;;;0.80;;
3817;SDS011;1924;48.078;11.516;2022-10-22T09:08:54;31.63;;;0.70;;
3817;SDS011;1924;48.078;11.516;2022-10-22T09:11:24;31.80;;;0.80;;
3817;SDS011;1924;48.078;11.516;2022-10-22T09:13:53;31.60;;;0.80;;
3817;SDS011;1924;48.078;11.516;2022-10-22T09:16:24;31.77;;;0.80;;
3817;SDS011;1924;48.078;11.516;2022-10-22T09:19:05;31.70;;;0.80;;
3817;SDS011;1924;48.078;11.516;2022-10-22T09:21:45;31.80;;;0.80;;
3817;SDS011;1924;48.078;11.516;2022-10-22T09:24:21;31.80;;;0.80;;
3817;SDS011;1924;48.078;11.516;2022-10-22T09:26:55;31.80;;;0.80;;
3817;SDS011;1924;48.078;11.516;2022-10-22T09:29:23;31.77;;;0.80;;
3817;SDS011;1924;48.078;11.516;2022-10-22T09:31:56;31.80;;;0.80;;
3817;SDS011;1924;48.078;11.516;2022-10-22T09:34:23;31.70;;;0.80;;
3817;SDS011;1924;48.078;11.516;2022-10-22T09:36:56;31.67;;;0.80;;
3817;SDS011;1924;48.078;11.516;2022-10-22T09:39:25;31.83;;;0.80;;
3817;SDS011;1924;48.078;11.516;2022-10-22T09:41:53;31.77;;;0.80;;
3817;SDS011;1924;48.078;11.516;2022-10-22T09:44:19;31.80;;;0.80;;
3817;SDS011;1924;48.078;11.516;2022-10-22T09:46:46;31.70;;;0.80;;
3817;SDS011;1924;48.078;11.516;2022-10-22T09:49:14;31.83;;;0.80;;
3817;SDS011;1924;48.078;11.516;2022-10-22T09:51:48;31.70;;;0.80;;
3817;SDS011;1924;48.078;11.516;2022-10-22T09:54:17;31.80;;;0.80;;
3817;SDS011;1924;48.078;11.516;2022-10-22T09:56:49;31.83;;;0.80;;
3817;SDS011;1924;48.078;11.516;2022-10-22T09:59:18;31.80;;;0.80;;
3817;SDS011;1924;48.078;11.516;2022-10-22T10:01:55;31.87;;;0.80;;
3817;SDS011;1924;48.078;11.516;2022-10-22T10:04:23;31.77;;;0.80;;
3817;SDS011;1924;48.078;11.516;2022-10-22T10:06:52;31.77;;;0.80;;
3817;SDS011;1924;48.078;11.516;2022-10-22T10:09:21;31.70;;;0.80;;
3817;SDS011;1924;48.078;11.516;2022-10-22T10:11:53;31.80;;;0.80;;
3817;SDS011;1924;48.078;11.516;2022-10-22T10:14:26;31.80;;;0.80;;
3817;SDS011;1924;48.078;11.516;2022-10-22T10:16:59;31.80;;;0.80;;
3817;SDS011;1924;48.078;11.516;2022-10-22T10:19:38;31.87;;;0.80;;
3817;SDS011;1924;48.078;11.516;2022-10-22T10:22:17;31.77;;;0.80;;
3817;SDS011;1924;48.078;11.516;2022-10-22T10:24:57;31.97;;;0.80;;
3817;SDS011;1924;48.078;11.516;2022-10-22T10:27:39;31.80;;;0.80;;
3817;SDS011;1924;48.078;11.516;2022-10-22T10:30:09;31.60;;;0.80;;
3817;SDS011;1924;48.078;11.516;2022-10-22T10:32:45;31.90;;;0.80;;
3817;SDS011;1924;48.078;11.516;2022-10-22T10:35:21;31.87;;;0.80;;
3817;SDS011;1924;48.078;11.516;2022-10-22T10:37:54;31.80;;;0.80;;
3817;SDS011;1924;48.078;11.516;2022-10-22T10:40:36;31.90;;;0.80;;
3817;SDS011;1924;48.078;11.516;2022-10-22T10:43:12;31.80;;;0.80;;
3817;SDS011;1924;48.078;11.516;2022-10-22T10:45:45;31.87;;;0.70;;
3817;SDS011;1924;48.078;11.516;2022-10-22T10:48:26;31.90;;;0.70;;
3817;SDS011;1924;48.078;11.516;2022-10-22T10:51:11;32.03;;;0.80;;
3817;SDS011;1924;48.078;11.516;2022-10-22T10:54:00;32.07;;;0.80;;
3817;SDS011;1924;48.078;11.516;2022-10-22T10:56:39;32.13;;;0.80;;
3817;SDS011;1924;48.078;11.516;2022-10-22T10:59:15;32.17;;;0.80;;
3817;SDS011;1924;48.078;11.516;2022-10-22T11:01:56;31.97;;;0.80;;
3817;SDS011;1924;48.078;11.516;2022-10-22T11:04:54;32.10;;;0.80;;
3817;SDS011;1924;48.078;11.516;2022-10-22T11:07:33;32.20;;;0.80;;
3817;SDS011;1924;48.078;11.516;2022-10-22T11:10:09;32.10;;;0.80;;
3817;SDS011;1924;48.078;11.516;2022-10-22T11:12:46;32.00;;;0.77;;
3817;SDS011;1924;48.078;11.516;2022-10-22T11:15:23;32.03;;;0.80;;
3817;SDS011;1924;48.078;11.516;2022-10-22T11:17:53;31.90;;;0.80;;
3817;SDS011;1924;48.078;11.516;2022-10-22T11:20:27;31.90;;;0.77;;
3817;SDS011;1924;48.078;11.516;2022-10-22T11:23:04;31.97;;;0.80;;
3817;SDS011;1924;48.078;11.516;2022-10-22T11:25:37;31.63;;;0.80;;
3817;SDS011;1924;48.078;11.516;2022-10-22T11:28:08;31.60;;;0.80;;
3817;SDS011;1924;48.078;11.516;2022-10-22T11:30:40;31.40;;;0.80;;
3817;SDS011;1924;48.078;11.516;2022-10-22T11:33:11;31.63;;;0.80;;
3817;SDS011;1924;48.078;11.516;2022-10-22T11:35:44;31.50;;;0.80;;
3817;SDS011;1924;48.078;11.516;2022-10-22T11:38:13;31.50;;;0.80;;
3817;SDS011;1924;48.078;11.516;2022-10-22T11:40:44;31.40;;;0.80;;
3817;SDS011;1924;48.078;11.516;2022-10-22T11:43:24;31.40;;;0.80;;
3817;SDS011;1924;48.078;11.516;2022-10-22T11:45:57;31.43;;;0.80;;
3817;SDS011;1924;48.078;11.516;2022-10-22T11:48:27;31.40;;;0.80;;
3817;SDS011;1924;48.078;11.516;2022-10-22T11:51:01;31.57;;;0.80;;
3817;SDS011;1924;48.078;11.516;2022-10-22T11:53:32;31.70;;;0.80;;
3817;SDS011;1924;48.078;11.516;2022-10-22T11:56:10;31.70;;;0.80;;
3817;SDS011;1924;48.078;11.516;2022-10-22T11:58:49;31.60;;;0.80;;
3817;SDS011;1924;48.078;11.516;2022-10-22T12:01:20;31.60;;;0.80;;
3817;SDS011;1924;48.078;11.516;2022-10-22T12:03:53;31.67;;;0.80;;
3817;SDS011;1924;48.078;11.516;2022-10-22T12:06:54;31.47;;;0.80;;
3817;SDS011;1924;48.078;11.516;2022-10-22T12:09:23;31.50;;;0.80;;
3817;SDS011;1924;48.078;11.516;2022-10-22T12:11:54;31.50;;;0.80;;
3817;SDS011;1924;48.078;11.516;2022-10-22T12:14:31;31.50;;;0.80;;
3817;SDS011;1924;48.078;11.516;2022-10-22T12:17:03;31.50;;;0.80;;
3817;SDS011;1924;48.078;11.516;2022-10-22T12:19:35;31.50;;;0.80;;
3817;SDS011;1924;48.078;11.516;2022-10-22T12:22:09;31.43;;;0.80;;
3817;SDS011;1924;48.078;11.516;2022-10-22T12:24:41;31.27;;;0.77;;
3817;SDS011;1924;48.078;11.516;2022-10-22T12:27:19;31.40;;;0.80;;
3817;SDS011;1924;48.078;11.516;2022-10-22T12:29:47;31.47;;;0.80;;
3817;SDS011;1924;48.078;11.516;2022-10-22T12:32:16;31.47;;;0.80;;
3817;SDS011;1924;48.078;11.516;2022-10-22T12:34:46;31.33;;;0.80;;
3817;SDS011;1924;48.078;11.516;2022-10-22T12:37:16;31.37;;;0.80;;
3817;SDS011;1924;48.078;11.516;2022-10-22T12:39:43;31.40;;;0.80;;
3817;SDS011;1924;48.078;11.516;2022-10-22T12:42:11;31.03;;;0.80;;
3817;SDS011;1924;48.078;11.516;2022-10-22T12:44:39;31.27;;;0.80;;
3817;SDS011;1924;48.078;11.516;2022-10-22T12:47:06;31.30;;;0.80;;
3817;SDS011;1924;48.078;11.516;2022-10-22T12:49:40;31.37;;;0.80;;
3817;SDS011;1924;48.078;11.516;2022-10-22T12:52:11;31.13;;;0.70;;
3817;SDS011;1924;48.078;11.516;2022-10-22T12:54:40;31.27;;;0.80;;
3817;SDS011;1924;48.078;11.516;2022-10-22T12:57:08;31.20;;;0.80;;
3817;SDS011;1924;48.078;11.516;2022-10-22T12:59:38;31.20;;;0.80;;
3817;SDS011;1924;48.078;11.516;2022-10-22T13:02:10;31.30;;;0.80;;
3817;SDS011;1924;48.078;11.516;2022-10-22T13:04:54;31.30;;;0.80;;
3817;SDS011;1924;48.078;11.516;2022-10-22T13:07:37;31.27;;;0.80;;
3817;SDS011;1924;48.078;11.516;2022-10-22T13:10:13;31.37;;;0.80;;
3817;SDS011;1924;48.078;11.516;2022-10-22T13:12:43;31.30;;;0.80;;
3817;SDS011;1924;48.078;11.516;2022-10-22T13:15:17;31.17;;;0.80;;
3817;SDS011;1924;48.078;11.516;2022-10-22T13:17:45;31.30;;;0.80;;
3817;SDS011;1924;48.078;11.516;2022-10-22T13:20:19;31.37;;;0.80;;
3817;SDS011;1924;48.078;11.516;2022-10-22T13:22:54;31.50;;;0.80;;
3817;SDS011;1924;48.078;11.516;2022-10-22T13:25:25;31.40;;;0.80;;
3817;SDS011;1924;48.078;11.516;2022-10-22T13:27:54;31.37;;;0.80;;
3817;SDS011;1924;48.078;11.516;2022-10-22T13:30:23;31.30;;;0.80;;
3817;SDS011;1924;48.078;11.516;2022-10-22T13:32:53;31.30;;;0.80;;
3817;SDS011;1924;48.078;11.516;2022-10-22T13:35:24;31.20;;;0.77;;
3817;SDS011;1924;48.078;11.516;2022-10-22T13:37:54;31.00;;;0.80;;
3817;SDS011;1924;48.078;11.516;2022-10-22T13:40:21;31.10;;;0.80;;
3817;SDS011;1924;48.078;11.516;2022-10-22T13:42:48;30.87;;;0.77;;
3817;SDS011;1924;48.078;11.516;2022-10-22T13:45:15;30.83;;;0.73;;
3817;SDS011;1924;48.078;11.516;2022-10-22T13:47:43;30.80;;;0.80;;
3817;SDS011;1924;48.078;11.516;2022-10-22T13:50:13;30.70;;;0.70;;
3817;SDS011;1924;48.078;11.516;2022-10-22T13:52:44;30.80;;;0.77;;
3817;SDS011;1924;48.078;11.516;2022-10-22T13:55:13;30.80;;;0.80;;
3817;SDS011;1924;48.078;11.516;2022-10-22T13:57:42;30.80;;;0.70;;
3817;SDS011;1924;48.078;11.516;2022-10-22T14:00:13;30.77;;;0.80;;
3817;SDS011;1924;48.078;11.516;2022-10-22T14:02:41;30.70;;;0.80;;
3817;SDS011;1924;48.078;11.516;2022-10-22T14:05:08;30.60;;;0.80;;
3817;SDS011;1924;48.078;11.516;2022-10-22T14:07:35;30.60;;;0.80;;
3817;SDS011;1924;48.078;11.516;2022-10-22T14:10:08;30.47;;;0.80;;
3817;SDS011;1924;48.078;11.516;2022-10-22T14:12:39;30.70;;;0.80;;
3817;SDS011;1924;48.078;11.516;2022-10-22T14:15:07;30.50;;;0.80;;
3817;SDS011;1924;48.078;11.516;2022-10-22T14:17:35;30.50;;;0.80;;
3817;SDS011;1924;48.078;11.516;2022-10-22T14:20:03;30.50;;;0.70;;
3817;SDS011;1924;48.078;11.516;2022-10-22T14:22:30;30.33;;;0.80;;
3817;SDS011;1924;48.078;11.516;2022-10-22T14:24:57;30.40;;;0.80;;
3817;SDS011;1924;48.078;11.516;2022-10-22T14:27:25;30.27;;;0.70;;
3817;SDS011;1924;48.078;11.516;2022-10-22T14:29:52;30.20;;;0.70;;
3817;SDS011;1924;48.078;11.516;2022-10-22T14:32:19;30.30;;;0.80;;
3817;SDS011;1924;48.078;11.516;2022-10-22T14:34:45;30.27;;;0.80;;
3817;SDS011;1924;48.078;11.516;2022-10-22T14:37:14;30.10;;;0.73;;
3817;SDS011;1924;48.078;11.516;2022-10-22T14:39:43;29.97;;;0.80;;
3817;SDS011;1924;48.078;11.516;2022-10-22T14:42:15;30.17;;;0.80;;
3817;SDS011;1924;48.078;11.516;2022-10-22T14:44:44;29.90;;;0.70;;
3817;SDS011;1924;48.078;11.516;2022-10-22T14:47:11;30.10;;;0.73;;
3817;SDS011;1924;48.078;11.516;2022-10-22T14:49:38;29.90;;;0.80;;
3817;SDS011;1924;48.078;11.516;2022-10-22T14:52:05;30.07;;;0.80;;
3817;SDS011;1924;48.078;11.516;2022-10-22T14:54:32;30.00;;;0.80;;
3817;SDS011;1924;48.078;11.516;2022-10-22T14:56:59;30.10;;;0.70;;
3817;SDS011;1924;48.078;11.516;2022-10-22T14:59:26;30.10;;;0.70;;
3817;SDS011;1924;48.078;11.516;2022-10-22T15:01:54;30.07;;;0.80;;
3817;SDS011;1924;48.078;11.516;2022-10-22T15:04:21;29.90;;;0.80;;
3817;SDS011;1924;48.078;11.516;2022-10-22T15:06:49;29.93;;;0.80;;
3817;SDS011;1924;48.078;11.516;2022-10-22T15:09:20;29.80;;;0.80;;
3817;SDS011;1924;48.078;11.516;2022-10-22T15:11:47;30.00;;;0.80;;
3817;SDS011;1924;48.078;11.516;2022-10-22T15:14:14;30.00;;;0.80;;
3817;SDS011;1924;48.078;11.516;2022-10-22T15:16:40;30.00;;;0.70;;
3817;SDS011;1924;48.078;11.516;2022-10-22T15:19:08;29.83;;;0.70;;
3817;SDS011;1924;48.078;11.516;2022-10-22T15:21:36;29.77;;;0.70;;
3817;SDS011;1924;48.078;11.516;2022-10-22T15:24:03;29.87;;;0.77;;
3817;SDS011;1924;48.078;11.516;2022-10-22T15:26:30;29.83;;;0.80;;
3817;SDS011;1924;48.078;11.516;2022-10-22T15:28:57;29.90;;;0.80;;
3817;SDS011;1924;48.078;11.516;2022-10-22T15:34:07;29.90;;;0.80;;
3817;SDS011;1924;48.078;11.516;2022-10-22T15:36:35;29.93;;;0.77;;
3817;SDS011;1924;48.078;11.516;2022-10-22T15:39:04;30.07;;;0.70;;
3817;SDS011;1924;48.078;11.516;2022-10-22T15:41:32;30.00;;;0.80;;
3817;SDS011;1924;48.078;11.516;2022-10-22T15:43:59;29.93;;;0.80;;
3817;SDS011;1924;48.078;11.516;2022-10-22T15:46:26;30.20;;;0.70;;
3817;SDS011;1924;48.078;11.516;2022-10-22T15:48:53;30.10;;;0.70;;
3817;SDS011;1924;48.078;11.516;2022-10-22T15:51:21;30.10;;;0.70;;
3817;SDS011;1924;48.078;11.516;2022-10-22T15:53:49;30.20;;;0.80;;
3817;SDS011;1924;48.078;11.516;2022-10-22T15:56:17;30.30;;;0.70;;
3817;SDS011;1924;48.078;11.516;2022-10-22T15:58:44;30.27;;;0.70;;
3817;SDS011;1924;48.078;11.516;2022-10-22T16:01:12;30.30;;;0.70;;
3817;SDS011;1924;48.078;11.516;2022-10-22T16:03:39;30.33;;;0.70;;
3817;SDS011;1924;48.078;11.516;2022-10-22T16:06:07;30.50;;;0.80;;
3817;SDS011;1924;48.078;11.516;2022-10-22T16:08:35;30.40;;;0.80;;
3817;SDS011;1924;48.078;11.516;2022-10-22T16:11:03;30.40;;;0.73;;
3817;SDS011;1924;48.078;11.516;2022-10-22T16:13:30;30.50;;;0.70;;
3817;SDS011;1924;48.078;11.516;2022-10-22T16:16:02;30.40;;;0.80;;
3817;SDS011;1924;48.078;11.516;2022-10-22T16:18:30;30.57;;;0.77;;
3817;SDS011;1924;48.078;11.516;2022-10-22T16:20:57;30.60;;;0.80;;
3817;SDS011;1924;48.078;11.516;2022-10-22T16:23:24;30.53;;;0.80;;
3817;SDS011;1924;48.078;11.516;2022-10-22T16:25:52;30.60;;;0.80;;
3817;SDS011;1924;48.078;11.516;2022-10-22T16:28:19;30.70;;;0.80;;
3817;SDS011;1924;48.078;11.516;2022-10-22T16:30:45;30.70;;;0.77;;
3817;SDS011;1924;48.078;11.516;2022-10-22T16:33:12;30.60;;;0.80;;
3817;SDS011;1924;48.078;11.516;2022-10-22T16:35:39;30.67;;;0.70;;
3817;SDS011;1924;48.078;11.516;2022-10-22T16:38:07;30.67;;;0.80;;
3817;SDS011;1924;48.078;11.516;2022-10-22T16:40:34;30.60;;;0.80;;